Time;durP1;ratioP1;P1;durP2;ratioP2;P2;SDS_P1;SDS_P2;PMS_P1;PMS_P2;Temp;Humidity;BMP_temperature;BMP_pressure;BME280_temperature;BME280_humidity;BME280_pressure;Samples;Min_cycle;Max_cycle;Signal;HPM_P1;HPM_P2
2024/01/01 00:01:42;;;;;;;20.87;16.57;;;6.80;99.90;;;;;;5048553;28;20239;-78
2024/01/01 00:04:09;;;;;;;24.87;18.97;;;6.80;99.90;;;;;;5048440;28;20677;-78
2024/01/01 00:06:37;;;;;;;28.83;21.30;;;6.80;99.90;;;;;;5048908;28;20204;-78
2024/01/01 00:09:04;;;;;;;29.60;22.97;;;6.80;99.90;;;;;;5047989;28;20327;-78
2024/01/01 00:11:31;;;;;;;38.57;27.67;;;6.80;99.90;;;;;;5048216;28;20204;-78
2024/01/01 00:13:58;;;;;;;39.30;29.60;;;6.80;99.90;;;;;;5048093;28;20278;-78
2024/01/01 00:16:25;;;;;;;41.97;30.70;;;6.80;99.90;;;;;;5048291;28;20254;-78
2024/01/01 00:18:52;;;;;;;46.53;34.73;;;6.90;99.90;;;;;;5048310;28;20276;-78
2024/01/01 00:21:19;;;;;;;47.13;35.00;;;6.90;99.90;;;;;;5047733;28;20205;-78
2024/01/01 00:23:47;;;;;;;49.80;35.03;;;6.80;99.90;;;;;;5048280;28;20231;-78
2024/01/01 00:26:14;;;;;;;48.63;35.10;;;6.80;99.90;;;;;;5040582;28;20240;-78
2024/01/01 00:28:41;;;;;;;47.97;34.77;;;6.70;99.90;;;;;;5027789;28;20212;-78
2024/01/01 00:31:08;;;;;;;50.87;35.60;;;6.70;99.90;;;;;;5042610;28;20228;-78
2024/01/01 00:33:35;;;;;;;50.00;35.00;;;6.70;99.90;;;;;;5047982;28;20647;-78
2024/01/01 00:36:02;;;;;;;44.53;32.20;;;6.70;99.90;;;;;;5047623;28;20299;-78
2024/01/01 00:38:29;;;;;;;45.33;33.33;;;6.60;99.90;;;;;;5047716;28;20294;-78
2024/01/01 00:40:57;;;;;;;40.97;29.37;;;6.60;99.90;;;;;;5047972;28;20294;-78
2024/01/01 00:43:24;;;;;;;36.47;26.87;;;6.70;99.90;;;;;;5047044;28;20299;-79
2024/01/01 00:45:51;;;;;;;36.90;26.30;;;6.70;99.90;;;;;;5047820;28;20231;-78
2024/01/01 00:48:17;;;;;;;37.97;24.97;;;6.70;99.90;;;;;;5047172;28;20299;-79
2024/01/01 00:50:45;;;;;;;29.20;20.90;;;6.70;99.90;;;;;;5048458;28;20674;-78
2024/01/01 00:53:12;;;;;;;26.00;19.20;;;6.60;99.90;;;;;;5046904;28;20204;-78
2024/01/01 00:55:38;;;;;;;24.07;18.03;;;6.60;99.90;;;;;;5045214;28;20858;-78
2024/01/01 00:58:07;;;;;;;23.37;16.87;;;6.60;99.90;;;;;;5040511;28;20750;-78
2024/01/01 01:00:34;;;;;;;22.63;15.90;;;6.60;99.90;;;;;;5047097;28;20729;-78
2024/01/01 01:03:00;;;;;;;21.37;15.80;;;6.60;99.90;;;;;;5047242;28;20574;-78
2024/01/01 01:05:27;;;;;;;17.30;14.93;;;6.60;99.90;;;;;;5047080;28;20242;-78
2024/01/01 01:07:54;;;;;;;18.93;14.73;;;6.60;99.90;;;;;;5047405;28;20287;-78
2024/01/01 01:10:21;;;;;;;22.53;16.43;;;6.70;99.90;;;;;;5046870;28;20691;-78
2024/01/01 01:12:48;;;;;;;22.20;16.30;;;6.70;99.90;;;;;;5047175;28;20322;-78
2024/01/01 01:15:16;;;;;;;22.10;17.13;;;6.70;99.90;;;;;;5047415;28;20299;-78
2024/01/01 01:17:46;;;;;;;19.80;15.87;;;6.70;99.90;;;;;;5047172;28;20299;-78
2024/01/01 01:20:13;;;;;;;25.13;17.50;;;6.70;99.90;;;;;;5047204;28;20317;-78
2024/01/01 01:22:42;;;;;;;19.80;15.03;;;6.70;99.90;;;;;;5046736;28;20307;-78
2024/01/01 01:25:10;;;;;;;22.10;16.30;;;6.70;99.90;;;;;;5047057;28;20212;-78
2024/01/01 01:27:37;;;;;;;19.17;15.23;;;6.70;99.90;;;;;;5028528;28;20596;-78
2024/01/01 01:30:05;;;;;;;19.70;14.00;;;6.80;99.90;;;;;;5032526;28;20234;-78
2024/01/01 01:32:34;;;;;;;18.03;14.67;;;6.70;99.90;;;;;;5046379;28;20299;-78
2024/01/01 01:35:01;;;;;;;19.83;15.57;;;6.80;99.90;;;;;;5046723;28;20679;-77
2024/01/01 01:37:29;;;;;;;20.87;15.57;;;6.80;99.90;;;;;;5046506;28;20208;-78
2024/01/01 01:39:56;;;;;;;22.17;15.30;;;6.80;99.90;;;;;;5046561;28;20327;-78
2024/01/01 01:42:23;;;;;;;21.53;14.77;;;6.70;99.90;;;;;;5046732;28;20919;-78
2024/01/01 01:44:49;;;;;;;19.20;14.60;;;6.70;99.90;;;;;;5046747;28;20207;-78
2024/01/01 01:47:17;;;;;;;19.73;14.97;;;6.70;99.90;;;;;;5030386;28;20232;-78
2024/01/01 01:49:45;;;;;;;20.80;15.07;;;6.70;99.90;;;;;;5027342;28;20443;-78
2024/01/01 01:52:12;;;;;;;18.60;13.93;;;6.70;99.90;;;;;;5026977;28;20299;-78
2024/01/01 01:54:39;;;;;;;17.50;13.70;;;6.70;99.90;;;;;;5042924;28;20311;-78
2024/01/01 01:57:07;;;;;;;16.70;13.43;;;6.60;99.90;;;;;;5031808;28;20646;-78
2024/01/01 01:59:35;;;;;;;19.20;13.70;;;6.60;99.90;;;;;;5027226;28;20238;-78
2024/01/01 02:02:02;;;;;;;18.93;12.80;;;6.60;99.90;;;;;;5030230;28;20232;-78
2024/01/01 02:04:29;;;;;;;16.57;13.23;;;6.50;99.90;;;;;;5031141;28;20467;-78
2024/01/01 02:06:57;;;;;;;16.03;12.87;;;6.60;99.90;;;;;;5031385;28;20201;-78
2024/01/01 02:09:24;;;;;;;14.90;12.13;;;6.60;99.90;;;;;;5030494;28;20414;-78
2024/01/01 02:11:51;;;;;;;17.27;12.70;;;6.50;99.90;;;;;;5030833;28;20711;-78
2024/01/01 02:14:18;;;;;;;16.70;12.47;;;6.50;99.90;;;;;;5030494;28;20299;-78
2024/01/01 02:16:45;;;;;;;16.77;12.03;;;6.50;99.90;;;;;;5030999;28;20308;-78
2024/01/01 02:19:18;;;;;;;15.13;11.70;;;6.50;99.90;;;;;;5030321;28;20251;-78
2024/01/01 02:21:46;;;;;;;15.33;11.67;;;6.50;99.90;;;;;;5030940;28;20228;-78
2024/01/01 02:24:15;;;;;;;15.13;11.53;;;6.40;99.90;;;;;;5030635;28;20291;-79
2024/01/01 02:26:43;;;;;;;13.57;10.97;;;6.40;99.90;;;;;;5041746;28;20243;-78
2024/01/01 02:29:10;;;;;;;14.03;11.10;;;6.40;99.90;;;;;;5036597;28;20201;-78
2024/01/01 02:31:37;;;;;;;15.40;11.07;;;6.40;99.90;;;;;;5048046;28;20235;-78
2024/01/01 02:34:04;;;;;;;12.97;10.77;;;6.40;99.90;;;;;;5049899;28;20647;-78
2024/01/01 02:36:35;;;;;;;16.00;11.23;;;6.40;99.90;;;;;;5049868;28;20303;-78
2024/01/01 02:39:01;;;;;;;14.57;10.83;;;6.40;99.90;;;;;;5050147;28;20196;-79
2024/01/01 02:41:31;;;;;;;15.90;11.23;;;6.40;99.90;;;;;;5049845;28;20927;-79
2024/01/01 02:43:58;;;;;;;13.20;10.63;;;6.30;99.90;;;;;;5029762;28;20739;-78
2024/01/01 02:46:24;;;;;;;18.37;12.40;;;6.30;99.90;;;;;;5030263;28;20311;-78
2024/01/01 02:48:51;;;;;;;16.13;11.83;;;6.30;99.90;;;;;;5029901;28;20640;-78
2024/01/01 02:51:18;;;;;;;15.17;11.70;;;6.30;99.90;;;;;;5049629;28;20661;-78
2024/01/01 02:53:45;;;;;;;17.30;12.63;;;6.30;99.90;;;;;;5049983;28;20298;-78
2024/01/01 02:56:16;;;;;;;13.47;11.87;;;6.30;99.90;;;;;;5042844;28;20731;-78
2024/01/01 02:58:45;;;;;;;45.07;21.80;;;6.30;99.90;;;;;;5029999;28;20220;-79
2024/01/01 03:01:12;;;;;;;46.60;23.23;;;6.30;99.90;;;;;;5030058;28;20265;-78
2024/01/01 03:03:39;;;;;;;31.07;16.60;;;6.30;99.90;;;;;;5030126;28;20299;-78
2024/01/01 03:06:06;;;;;;;15.63;12.43;;;6.30;99.90;;;;;;5030154;28;20215;-78
2024/01/01 03:08:36;;;;;;;42.03;32.20;;;6.30;99.90;;;;;;5029850;28;20213;-77
2024/01/01 03:11:04;;;;;;;17.17;13.30;;;6.30;99.90;;;;;;5030332;28;20240;-78
2024/01/01 03:13:31;;;;;;;15.33;12.90;;;6.30;99.90;;;;;;5028516;28;20274;-78
2024/01/01 03:15:59;;;;;;;19.77;13.97;;;6.30;99.90;;;;;;5029860;28;20296;-78
2024/01/01 03:18:26;;;;;;;19.30;14.53;;;6.20;99.90;;;;;;5029672;28;20291;-82
2024/01/01 03:20:53;;;;;;;22.47;14.83;;;6.20;99.90;;;;;;5030038;28;20323;-78
2024/01/01 03:23:20;;;;;;;15.73;12.00;;;6.20;99.90;;;;;;5029709;28;20312;-78
2024/01/01 03:25:47;;;;;;;20.27;14.07;;;6.20;99.90;;;;;;5033900;28;20212;-78
2024/01/01 03:28:14;;;;;;;22.53;14.93;;;6.20;99.90;;;;;;5049856;28;20208;-78
2024/01/01 03:30:41;;;;;;;31.07;17.70;;;6.20;99.90;;;;;;5046917;28;20311;-78
2024/01/01 03:33:09;;;;;;;54.60;30.47;;;6.20;99.90;;;;;;5049072;28;20299;-78
2024/01/01 03:35:36;;;;;;;22.57;12.77;;;6.10;99.90;;;;;;5049527;28;20291;-78
2024/01/01 03:38:03;;;;;;;11.40;10.10;;;6.10;99.90;;;;;;5049122;28;20308;-78
2024/01/01 03:40:30;;;;;;;21.00;13.87;;;6.00;99.90;;;;;;5049446;28;20327;-78
2024/01/01 03:42:57;;;;;;;19.30;12.73;;;6.00;99.90;;;;;;5049177;28;20285;-77
2024/01/01 03:45:24;;;;;;;15.30;10.53;;;5.90;99.90;;;;;;5049046;28;21010;-78
2024/01/01 03:47:52;;;;;;;15.27;10.93;;;6.00;99.90;;;;;;5049087;28;20296;-78
2024/01/01 03:50:20;;;;;;;19.13;11.37;;;6.00;99.90;;;;;;5048817;28;20211;-78
2024/01/01 03:52:48;;;;;;;34.20;20.10;;;6.00;99.90;;;;;;5048888;28;20291;-78
2024/01/01 03:55:15;;;;;;;42.20;26.03;;;6.10;99.90;;;;;;5048960;28;20204;-78
2024/01/01 03:57:42;;;;;;;17.40;11.90;;;6.10;99.90;;;;;;5048583;28;20694;-78
2024/01/01 04:00:11;;;;;;;16.77;12.70;;;6.10;99.90;;;;;;5048760;28;20228;-78
2024/01/01 04:02:39;;;;;;;18.40;12.20;;;6.10;99.90;;;;;;5048482;28;20287;-78
2024/01/01 04:05:06;;;;;;;16.83;12.10;;;6.10;99.90;;;;;;5048672;28;20230;-78
2024/01/01 04:07:35;;;;;;;16.17;10.43;;;6.10;99.90;;;;;;5048448;28;20808;-78
2024/01/01 04:10:03;;;;;;;13.40;11.10;;;6.10;99.90;;;;;;5048328;28;20240;-78
2024/01/01 04:12:30;;;;;;;20.93;13.50;;;6.10;99.90;;;;;;5048352;28;20246;-79
2024/01/01 04:14:57;;;;;;;15.20;10.67;;;6.10;99.90;;;;;;5048796;28;20227;-78
2024/01/01 04:17:24;;;;;;;14.17;9.73;;;6.10;99.90;;;;;;5047976;28;20307;-78
2024/01/01 04:19:50;;;;;;;15.97;9.90;;;6.10;99.90;;;;;;5048244;28;20306;-78
2024/01/01 04:22:18;;;;;;;14.60;9.67;;;6.10;99.90;;;;;;5048216;28;20210;-78
2024/01/01 04:24:47;;;;;;;13.17;9.83;;;6.10;99.90;;;;;;5047731;28;20232;-78
2024/01/01 04:27:14;;;;;;;13.03;9.47;;;6.10;99.90;;;;;;5047529;28;20239;-79
2024/01/01 04:29:40;;;;;;;12.93;9.50;;;6.10;99.90;;;;;;5048242;28;20290;-79
2024/01/01 04:32:08;;;;;;;12.93;9.97;;;6.10;99.90;;;;;;5048216;28;20632;-78
2024/01/01 04:34:34;;;;;;;12.80;10.27;;;6.10;99.90;;;;;;5047212;28;20266;-76
2024/01/01 04:37:02;;;;;;;15.00;10.03;;;6.10;99.90;;;;;;5047979;28;20293;-77
2024/01/01 04:39:29;;;;;;;17.27;10.10;;;6.10;99.90;;;;;;5048077;28;20753;-77
2024/01/01 04:41:58;;;;;;;13.63;9.90;;;6.10;99.90;;;;;;5044687;28;20221;-77
2024/01/01 04:44:25;;;;;;;13.43;9.23;;;6.10;99.90;;;;;;5028578;28;20295;-77
2024/01/01 04:46:52;;;;;;;13.90;10.27;;;6.20;99.90;;;;;;5028645;28;20232;-77
2024/01/01 04:49:19;;;;;;;13.27;10.43;;;6.20;99.90;;;;;;5028434;28;20256;-78
2024/01/01 04:51:46;;;;;;;14.57;9.90;;;6.20;99.90;;;;;;5028795;28;20316;-77
2024/01/01 04:54:13;;;;;;;12.57;10.23;;;6.20;99.90;;;;;;5028163;28;20215;-77
2024/01/01 04:56:40;;;;;;;14.03;10.63;;;6.30;99.90;;;;;;5039135;28;20307;-77
2024/01/01 04:59:08;;;;;;;15.93;10.47;;;6.20;99.90;;;;;;5047991;28;20787;-77
2024/01/01 05:01:35;;;;;;;15.73;9.73;;;6.20;99.90;;;;;;5048163;28;20319;-77
2024/01/01 05:04:02;;;;;;;13.23;11.33;;;6.20;99.90;;;;;;5047739;28;20216;-77
2024/01/01 05:06:29;;;;;;;14.83;10.60;;;6.20;99.90;;;;;;5047838;28;20298;-77
2024/01/01 05:08:55;;;;;;;15.10;10.93;;;6.20;99.90;;;;;;5046950;28;20250;-78
2024/01/01 05:11:22;;;;;;;14.17;10.47;;;6.20;99.90;;;;;;5047655;28;20242;-78
2024/01/01 05:13:49;;;;;;;15.60;11.10;;;6.20;99.90;;;;;;5047454;28;20290;-77
2024/01/01 05:16:19;;;;;;;13.40;11.00;;;6.20;99.90;;;;;;5047453;28;20230;-77
2024/01/01 05:18:46;;;;;;;15.73;11.07;;;6.20;99.90;;;;;;5047293;28;20294;-76
2024/01/01 05:21:12;;;;;;;14.80;11.37;;;6.10;99.90;;;;;;5047090;28;20374;-75
2024/01/01 05:23:39;;;;;;;13.30;10.17;;;6.20;99.90;;;;;;5046722;28;20318;-76
2024/01/01 05:26:07;;;;;;;15.27;10.63;;;6.20;99.90;;;;;;5047093;28;20630;-76
2024/01/01 05:28:34;;;;;;;15.90;10.70;;;6.10;99.90;;;;;;5047218;28;20296;-76
2024/01/01 05:31:01;;;;;;;17.17;11.50;;;6.20;99.90;;;;;;5047193;28;20250;-76
2024/01/01 05:33:29;;;;;;;16.10;11.20;;;6.10;99.90;;;;;;5047074;28;20650;-76
2024/01/01 05:35:56;;;;;;;15.13;11.17;;;6.10;99.90;;;;;;5046542;28;20814;-75
2024/01/01 05:38:23;;;;;;;15.07;11.37;;;6.20;99.90;;;;;;5041318;28;20298;-75
2024/01/01 05:40:50;;;;;;;15.37;11.80;;;6.20;99.90;;;;;;5027101;28;20319;-75
2024/01/01 05:43:17;;;;;;;14.17;11.13;;;6.20;99.90;;;;;;5026777;28;20295;-75
2024/01/01 05:45:45;;;;;;;15.27;11.37;;;6.20;99.90;;;;;;5027011;28;20579;-75
2024/01/01 05:48:11;;;;;;;15.30;10.80;;;6.20;99.90;;;;;;5026988;28;20844;-75
2024/01/01 05:50:40;;;;;;;14.17;10.53;;;6.20;99.90;;;;;;5027097;28;20213;-75
2024/01/01 05:53:07;;;;;;;17.93;11.23;;;6.30;99.90;;;;;;5026473;28;20300;-75
2024/01/01 05:55:34;;;;;;;15.30;10.87;;;6.30;99.90;;;;;;5029139;28;20628;-75
2024/01/01 05:58:02;;;;;;;16.17;11.47;;;6.30;99.90;;;;;;5046648;28;20652;-75
2024/01/01 06:00:29;;;;;;;14.90;10.37;;;6.20;99.90;;;;;;5046738;28;20208;-76
2024/01/01 06:02:55;;;;;;;12.67;10.00;;;6.20;99.90;;;;;;5047458;28;20200;-76
2024/01/01 06:05:22;;;;;;;14.83;10.97;;;6.20;99.90;;;;;;5046925;28;20204;-76
2024/01/01 06:07:51;;;;;;;13.43;10.57;;;6.20;99.90;;;;;;5047132;28;20295;-76
2024/01/01 06:10:18;;;;;;;14.57;9.53;;;6.20;99.90;;;;;;5046737;28;21025;-76
2024/01/01 06:12:45;;;;;;;13.13;9.47;;;6.20;99.90;;;;;;5046937;28;20236;-76
2024/01/01 06:15:13;;;;;;;15.53;9.97;;;6.20;99.90;;;;;;5047156;28;20219;-76
2024/01/01 06:17:40;;;;;;;12.70;10.23;;;6.20;99.90;;;;;;5047063;28;20216;-76
2024/01/01 06:20:08;;;;;;;12.90;9.90;;;6.20;99.90;;;;;;5046580;28;20204;-76
2024/01/01 06:22:34;;;;;;;15.10;10.13;;;6.20;99.90;;;;;;5046361;28;20340;-75
2024/01/01 06:25:03;;;;;;;13.30;9.37;;;6.20;99.90;;;;;;5046468;28;20291;-75
2024/01/01 06:27:30;;;;;;;13.20;9.33;;;6.30;99.90;;;;;;5045868;28;20204;-76
2024/01/01 06:29:58;;;;;;;11.90;8.43;;;6.20;99.90;;;;;;5045975;28;20204;-75
2024/01/01 06:32:25;;;;;;;9.17;8.27;;;6.20;99.90;;;;;;5046292;28;20710;-75
2024/01/01 06:34:51;;;;;;;12.60;8.90;;;6.20;99.90;;;;;;5045722;28;20254;-75
2024/01/01 06:37:18;;;;;;;11.03;7.97;;;6.20;99.90;;;;;;5036985;28;20689;-75
2024/01/01 06:39:45;;;;;;;9.37;7.97;;;6.20;99.90;;;;;;5035066;28;20775;-76
2024/01/01 06:42:15;;;;;;;13.40;7.80;;;6.20;99.90;;;;;;5029780;28;20777;-77
2024/01/01 06:44:42;;;;;;;9.07;7.50;;;6.20;99.90;;;;;;5035811;28;20238;-75
2024/01/01 06:47:09;;;;;;;9.57;6.93;;;6.20;99.90;;;;;;5038617;28;20196;-75
2024/01/01 06:49:36;;;;;;;8.77;7.37;;;6.20;99.90;;;;;;5038335;28;20295;-74
2024/01/01 06:52:06;;;;;;;9.47;7.10;;;6.30;99.90;;;;;;5041094;28;20291;-75
2024/01/01 06:54:33;;;;;;;8.37;7.17;;;6.30;99.90;;;;;;5049601;28;20687;-75
2024/01/01 06:57:00;;;;;;;9.83;7.40;;;6.30;99.90;;;;;;5036196;28;20213;-75
2024/01/01 06:59:28;;;;;;;8.47;7.37;;;6.30;99.90;;;;;;5029536;28;20735;-74
2024/01/01 07:01:57;;;;;;;10.07;7.33;;;6.40;99.90;;;;;;5029722;28;20240;-74
2024/01/01 07:04:24;;;;;;;7.77;6.97;;;6.30;99.90;;;;;;5029772;28;20209;-74
2024/01/01 07:06:51;;;;;;;7.83;6.70;;;6.30;99.90;;;;;;5029608;28;20276;-74
2024/01/01 07:09:18;;;;;;;10.63;6.73;;;6.30;99.90;;;;;;5029017;28;20241;-74
2024/01/01 07:11:45;;;;;;;8.03;6.63;;;6.30;99.90;;;;;;5029831;28;20336;-74
2024/01/01 07:14:12;;;;;;;6.57;5.97;;;6.30;99.90;;;;;;5028897;28;20223;-74
2024/01/01 07:16:40;;;;;;;10.27;6.50;;;6.30;99.90;;;;;;5042051;28;20299;-74
2024/01/01 07:19:07;;;;;;;7.67;5.93;;;6.30;99.90;;;;;;5049359;28;20298;-74
2024/01/01 07:21:34;;;;;;;10.77;5.93;;;6.30;99.90;;;;;;5049412;28;20319;-76
2024/01/01 07:24:01;;;;;;;9.27;5.73;;;6.30;99.90;;;;;;5050254;28;20316;-75
2024/01/01 07:26:28;;;;;;;7.13;5.23;;;6.30;99.90;;;;;;5049367;28;20227;-76
2024/01/01 07:28:55;;;;;;;8.47;5.47;;;6.30;99.90;;;;;;5049405;28;20303;-76
2024/01/01 07:31:22;;;;;;;9.90;5.80;;;6.30;99.90;;;;;;5049043;28;20279;-76
2024/01/01 07:33:50;;;;;;;8.53;5.50;;;6.30;99.90;;;;;;5049444;28;20300;-76
2024/01/01 07:36:17;;;;;;;7.73;4.90;;;6.30;99.90;;;;;;5049255;28;20258;-76
2024/01/01 07:38:44;;;;;;;7.00;5.27;;;6.30;99.90;;;;;;5049156;28;20320;-76
2024/01/01 07:41:11;;;;;;;5.67;5.07;;;6.30;99.90;;;;;;5049074;28;20255;-76
2024/01/01 07:43:39;;;;;;;5.93;4.37;;;6.30;99.90;;;;;;5048764;28;20233;-76
2024/01/01 07:46:09;;;;;;;6.03;4.77;;;6.30;99.90;;;;;;5048882;28;20212;-76
2024/01/01 07:48:36;;;;;;;6.00;4.70;;;6.30;99.90;;;;;;5049230;28;20211;-76
2024/01/01 07:51:05;;;;;;;7.97;4.87;;;6.40;99.90;;;;;;5049213;28;20209;-76
2024/01/01 07:53:32;;;;;;;7.40;4.33;;;6.40;99.90;;;;;;5048339;28;20212;-77
2024/01/01 07:56:02;;;;;;;4.30;3.90;;;6.40;99.90;;;;;;5048971;28;20314;-76
2024/01/01 07:58:29;;;;;;;5.57;4.13;;;6.40;99.90;;;;;;5047482;28;20678;-76
2024/01/01 08:00:56;;;;;;;4.90;4.03;;;6.40;99.90;;;;;;5048969;28;20212;-77
2024/01/01 08:03:23;;;;;;;4.67;4.20;;;6.50;99.90;;;;;;5048684;28;20338;-75
2024/01/01 08:05:50;;;;;;;4.10;3.70;;;6.50;99.90;;;;;;5049020;28;20207;-76
2024/01/01 08:08:18;;;;;;;5.53;3.67;;;6.60;99.90;;;;;;5028230;28;20205;-76
2024/01/01 08:10:45;;;;;;;5.03;3.57;;;6.70;99.90;;;;;;5028444;28;20319;-75
2024/01/01 08:13:12;;;;;;;6.40;3.97;;;6.80;99.90;;;;;;5046978;28;20267;-75
2024/01/01 08:15:39;;;;;;;5.40;3.80;;;6.80;99.90;;;;;;5048670;28;20292;-76
2024/01/01 08:18:06;;;;;;;3.87;3.47;;;6.80;99.90;;;;;;5048452;28;20299;-76
2024/01/01 08:20:33;;;;;;;6.40;3.43;;;6.80;99.90;;;;;;5048484;28;20298;-76
2024/01/01 08:23:00;;;;;;;6.07;4.03;;;6.80;99.90;;;;;;5048286;28;20327;-76
2024/01/01 08:25:28;;;;;;;3.90;3.50;;;6.80;99.90;;;;;;5048597;28;20749;-76
2024/01/01 08:27:55;;;;;;;5.80;3.67;;;6.80;99.90;;;;;;5048268;28;20243;-76
2024/01/01 08:30:22;;;;;;;5.33;3.60;;;6.80;99.90;;;;;;5048291;28;20225;-75
2024/01/01 08:32:49;;;;;;;4.10;3.70;;;6.80;99.90;;;;;;5047958;28;20203;-75
2024/01/01 08:35:16;;;;;;;3.83;3.33;;;6.80;99.90;;;;;;5047904;28;20670;-75
2024/01/01 08:37:43;;;;;;;4.03;3.57;;;6.90;99.90;;;;;;5048056;28;20204;-76
2024/01/01 08:40:11;;;;;;;5.37;3.50;;;6.80;99.90;;;;;;5048450;28;20200;-76
2024/01/01 08:42:40;;;;;;;4.93;3.43;;;6.90;99.90;;;;;;5048134;28;20277;-77
2024/01/01 08:45:09;;;;;;;5.27;3.10;;;6.90;99.90;;;;;;5048028;28;20307;-76
2024/01/01 08:47:36;;;;;;;4.63;3.20;;;7.00;99.90;;;;;;5048152;28;20214;-76
2024/01/01 08:50:03;;;;;;;5.73;3.10;;;7.10;99.90;;;;;;5048430;28;20639;-77
2024/01/01 08:52:30;;;;;;;3.53;2.97;;;7.20;99.90;;;;;;5047770;28;20245;-77
2024/01/01 08:54:57;;;;;;;8.00;3.67;;;7.30;99.90;;;;;;5047603;28;20207;-75
2024/01/01 08:57:24;;;;;;;4.33;3.13;;;7.30;99.90;;;;;;5030781;28;20219;-76
2024/01/01 08:59:52;;;;;;;4.13;3.30;;;7.30;99.90;;;;;;5027783;28;20291;-75
2024/01/01 09:02:19;;;;;;;4.30;3.20;;;7.40;99.90;;;;;;5027551;28;20319;-75
2024/01/01 09:04:45;;;;;;;3.27;2.97;;;7.40;99.90;;;;;;5027760;28;20671;-76
2024/01/01 09:07:12;;;;;;;4.53;3.20;;;7.50;99.90;;;;;;5028162;28;20742;-76
2024/01/01 09:09:40;;;;;;;4.30;2.83;;;7.60;99.90;;;;;;5047029;28;20320;-76
2024/01/01 09:12:08;;;;;;;4.23;3.10;;;7.50;99.90;;;;;;5047637;28;20227;-76
2024/01/01 09:14:36;;;;;;;4.83;3.37;;;7.50;99.90;;;;;;5047244;28;20203;-76
2024/01/01 09:17:07;;;;;;;5.60;3.10;;;7.50;99.90;;;;;;5062485;28;20726;-76
2024/01/01 09:19:34;;;;;;;4.83;3.20;;;7.50;99.90;;;;;;5067462;28;20226;-76
2024/01/01 09:22:01;;;;;;;4.97;3.27;;;7.50;99.90;;;;;;5067023;28;20227;-76
2024/01/01 09:24:28;;;;;;;5.77;3.07;;;7.50;99.90;;;;;;5038253;28;20204;-76
2024/01/01 09:26:54;;;;;;;3.60;3.07;;;7.50;99.90;;;;;;5040263;28;20230;-76
2024/01/01 09:29:23;;;;;;;4.53;3.60;;;7.50;99.90;;;;;;5046776;28;20243;-76
2024/01/01 09:31:49;;;;;;;3.40;3.10;;;7.50;99.90;;;;;;5026887;28;20715;-76
2024/01/01 09:34:18;;;;;;;3.80;3.40;;;7.50;99.90;;;;;;5027884;28;20300;-76
2024/01/01 09:36:45;;;;;;;2.90;2.60;;;7.50;99.90;;;;;;5027707;28;20300;-76
2024/01/01 09:39:12;;;;;;;5.30;3.33;;;7.50;99.90;;;;;;5026921;28;20244;-76
2024/01/01 09:41:38;;;;;;;3.07;2.87;;;7.40;99.90;;;;;;5027375;28;20235;-75
2024/01/01 09:44:07;;;;;;;5.07;2.87;;;7.40;99.90;;;;;;5027028;28;20219;-75
2024/01/01 09:46:34;;;;;;;3.40;2.93;;;7.40;99.90;;;;;;5027247;28;20204;-76
2024/01/01 09:49:03;;;;;;;4.37;3.03;;;7.50;99.90;;;;;;5027125;28;20212;-77
2024/01/01 09:51:33;;;;;;;5.50;3.10;;;7.40;99.90;;;;;;5027069;28;20314;-76
2024/01/01 09:54:02;;;;;;;4.10;3.33;;;7.40;99.90;;;;;;5026762;28;20208;-75
2024/01/01 09:56:29;;;;;;;2.87;2.63;;;7.40;99.90;;;;;;5026783;28;20208;-75
2024/01/01 09:58:57;;;;;;;5.20;3.10;;;7.40;99.90;;;;;;5026869;28;20259;-75
2024/01/01 10:01:24;;;;;;;3.50;2.90;;;7.40;99.90;;;;;;5026556;28;20339;-74
2024/01/01 10:04:02;;;;;;;3.20;2.90;;;7.40;99.90;;;;;;5026469;28;20335;-75
2024/01/01 10:06:32;;;;;;;6.97;3.07;;;7.40;99.90;;;;;;5038448;28;20250;-74
2024/01/01 10:09:08;;;;;;;3.43;2.90;;;7.40;99.90;;;;;;5046144;28;20246;-75
2024/01/01 10:11:38;;;;;;;3.07;2.87;;;7.40;99.90;;;;;;5046174;28;20232;-75
2024/01/01 10:14:06;;;;;;;6.27;3.30;;;7.40;99.90;;;;;;5026244;28;20208;-75
2024/01/01 10:16:34;;;;;;;2.80;2.50;;;7.40;99.90;;;;;;5026640;28;20209;-77
2024/01/01 10:19:03;;;;;;;3.50;3.20;;;7.40;99.90;;;;;;5026762;28;20312;-78
2024/01/01 10:21:34;;;;;;;4.77;3.17;;;7.50;99.90;;;;;;5024187;28;20274;-77
2024/01/01 10:24:13;;;;;;;4.13;2.77;;;7.50;99.90;;;;;;5026291;28;20201;-77
2024/01/01 10:26:44;;;;;;;4.13;2.70;;;7.50;99.90;;;;;;5037346;28;20207;-77
2024/01/01 10:29:13;;;;;;;3.70;2.80;;;7.60;99.90;;;;;;5045867;28;20279;-77
2024/01/01 10:31:44;;;;;;;4.00;2.87;;;7.60;99.90;;;;;;5041805;28;20211;-77
2024/01/01 10:34:12;;;;;;;5.03;2.70;;;7.60;99.90;;;;;;5037341;28;20197;-77
2024/01/01 10:36:41;;;;;;;4.37;2.87;;;7.60;99.90;;;;;;5036869;28;20302;-77
2024/01/01 10:39:09;;;;;;;5.53;2.90;;;7.60;99.90;;;;;;5035526;28;20215;-77
2024/01/01 10:41:38;;;;;;;3.70;3.10;;;7.60;99.90;;;;;;5037060;28;20234;-77
2024/01/01 10:44:08;;;;;;;5.13;3.30;;;7.60;99.90;;;;;;5045395;28;20272;-77
2024/01/01 10:46:37;;;;;;;3.93;3.00;;;7.60;99.90;;;;;;5045668;28;20663;-77
2024/01/01 10:49:06;;;;;;;4.77;2.97;;;7.60;99.90;;;;;;5045601;28;20215;-78
2024/01/01 10:51:43;;;;;;;4.70;2.60;;;7.70;99.90;;;;;;5045579;28;20322;-77
2024/01/01 10:54:41;;;;;;;2.77;2.57;;;7.70;99.90;;;;;;5045519;28;20566;-78
2024/01/01 10:57:22;;;;;;;4.13;3.00;;;7.70;99.90;;;;;;5045198;28;20209;-77
2024/01/01 10:59:54;;;;;;;4.00;2.90;;;7.70;99.90;;;;;;5045177;28;20204;-77
2024/01/01 11:02:23;;;;;;;3.80;2.83;;;7.70;99.90;;;;;;5044928;28;20698;-78
2024/01/01 11:05:06;;;;;;;3.50;2.50;;;7.70;99.90;;;;;;5045092;28;20299;-77
2024/01/01 11:07:59;;;;;;;4.13;2.50;;;7.80;99.90;;;;;;5044982;28;20251;-77
2024/01/01 11:10:37;;;;;;;3.40;2.67;;;7.80;99.90;;;;;;5024597;28;20359;-77
2024/01/01 11:13:04;;;;;;;3.60;3.10;;;7.80;99.90;;;;;;5024757;28;20657;-77
2024/01/01 11:15:42;;;;;;;4.03;2.73;;;7.80;99.90;;;;;;5025629;28;20296;-77
2024/01/01 11:18:17;;;;;;;5.40;2.67;;;7.90;99.90;;;;;;5025215;28;20526;-77
2024/01/01 11:20:52;;;;;;;5.73;3.17;;;7.90;99.90;;;;;;5030647;28;20203;-77
2024/01/01 11:23:40;;;;;;;4.40;2.80;;;7.90;99.90;;;;;;5044360;28;20243;-77
2024/01/01 11:26:31;;;;;;;4.77;3.00;;;7.90;99.90;;;;;;5044558;28;20290;-78
2024/01/01 11:29:00;;;;;;;4.07;2.80;;;7.90;99.90;;;;;;5044238;28;20738;-77
2024/01/01 11:31:28;;;;;;;4.60;2.90;;;7.90;99.90;;;;;;5044233;28;20308;-77
2024/01/01 11:34:02;;;;;;;3.60;2.10;;;7.90;99.90;;;;;;5043277;28;20289;-77
2024/01/01 11:36:29;;;;;;;3.80;3.00;;;7.90;99.90;;;;;;5044193;28;21061;-77
2024/01/01 11:38:58;;;;;;;5.07;2.80;;;7.90;99.90;;;;;;5044757;28;20850;-77
2024/01/01 11:41:27;;;;;;;3.93;2.53;;;7.90;99.90;;;;;;5044876;28;20522;-77
2024/01/01 11:43:54;;;;;;;3.97;2.83;;;7.90;99.90;;;;;;5044834;28;20588;-77
2024/01/01 11:46:28;;;;;;;4.97;2.80;;;7.90;99.90;;;;;;5043918;28;20658;-77
2024/01/01 11:48:56;;;;;;;7.37;3.20;;;7.90;99.90;;;;;;5044862;28;20204;-77
2024/01/01 11:51:24;;;;;;;3.50;2.63;;;7.90;99.90;;;;;;5044419;28;20693;-77
2024/01/01 11:54:06;;;;;;;4.43;2.77;;;7.90;99.90;;;;;;5043919;28;20678;-77
2024/01/01 11:56:33;;;;;;;5.03;2.60;;;7.90;99.90;;;;;;5043901;28;20299;-77
2024/01/01 11:59:01;;;;;;;3.33;2.57;;;7.90;99.90;;;;;;5043861;28;20303;-77
2024/01/01 12:01:28;;;;;;;3.20;2.40;;;8.00;99.90;;;;;;5043947;28;20208;-77
2024/01/01 12:03:55;;;;;;;5.30;2.60;;;8.00;99.90;;;;;;5044432;28;20542;-77
2024/01/01 12:06:22;;;;;;;4.10;2.50;;;8.00;99.90;;;;;;5044971;28;20698;-78
2024/01/01 12:08:50;;;;;;;4.37;2.40;;;8.00;99.90;;;;;;5043031;28;20274;-77
2024/01/01 12:11:19;;;;;;;5.73;2.40;;;8.10;99.90;;;;;;5043918;28;20224;-77
2024/01/01 12:13:56;;;;;;;4.80;2.27;;;8.10;99.90;;;;;;5024858;28;20573;-77
2024/01/01 12:16:23;;;;;;;5.40;2.70;;;8.20;99.90;;;;;;5024030;28;20219;-77
2024/01/01 12:18:56;;;;;;;5.60;3.20;;;8.20;99.90;;;;;;5023637;28;20316;-77
2024/01/01 12:21:23;;;;;;;4.27;3.37;;;8.20;99.90;;;;;;5034783;28;20204;-77
2024/01/01 12:23:50;;;;;;;4.60;2.43;;;8.20;99.90;;;;;;5043672;28;20243;-77
2024/01/01 12:26:28;;;;;;;4.50;2.97;;;8.30;99.90;;;;;;5042958;28;20850;-77
2024/01/01 12:29:12;;;;;;;3.20;2.47;;;8.20;99.90;;;;;;5043953;28;20287;-77
2024/01/01 12:31:39;;;;;;;6.20;3.13;;;8.20;99.90;;;;;;5024866;28;20287;-77
2024/01/01 12:34:07;;;;;;;4.70;2.93;;;8.20;99.90;;;;;;5023074;28;20274;-77
2024/01/01 12:36:35;;;;;;;3.67;2.40;;;8.20;99.90;;;;;;5023634;28;20209;-76
2024/01/01 12:39:02;;;;;;;3.77;3.10;;;8.20;99.90;;;;;;5023193;28;20583;-76
2024/01/01 12:41:31;;;;;;;4.43;2.80;;;8.20;99.90;;;;;;5023668;28;20212;-76
2024/01/01 12:43:59;;;;;;;4.80;2.70;;;8.20;99.90;;;;;;5023469;28;20240;-77
2024/01/01 12:46:26;;;;;;;4.23;2.70;;;8.20;99.90;;;;;;5023444;28;20204;-77
2024/01/01 12:48:53;;;;;;;4.93;2.90;;;8.20;99.90;;;;;;5047598;28;20299;-76
2024/01/01 12:51:23;;;;;;;4.83;2.40;;;8.10;99.90;;;;;;5042923;28;20291;-75
2024/01/01 12:53:50;;;;;;;5.27;2.40;;;8.10;99.90;;;;;;5046072;28;20212;-77